sensor_id;sensor_type;location;lat;lon;timestamp;P1;durP1;ratioP1;P2;durP2;ratioP2
79668;SDS011;69136;52.614;6.976;2023-11-19T00:03:02;14.43;;;7.97;;
79668;SDS011;69136;52.614;6.976;2023-11-19T00:05:46;15.75;;;7.35;;
79668;SDS011;69136;52.614;6.976;2023-11-19T00:11:14;12.23;;;7.43;;
79668;SDS011;69136;52.614;6.976;2023-11-19T00:13:59;17.23;;;8.88;;
79668;SDS011;69136;52.614;6.976;2023-11-19T00:16:43;13.90;;;8.00;;
79668;SDS011;69136;52.614;6.976;2023-11-19T00:19:27;17.63;;;8.65;;
79668;SDS011;69136;52.614;6.976;2023-11-19T00:22:11;20.73;;;9.85;;
79668;SDS011;69136;52.614;6.976;2023-11-19T00:24:55;20.90;;;10.27;;
79668;SDS011;69136;52.614;6.976;2023-11-19T00:27:39;21.70;;;10.52;;
79668;SDS011;69136;52.614;6.976;2023-11-19T00:30:23;18.90;;;10.57;;
79668;SDS011;69136;52.614;6.976;2023-11-19T00:33:07;17.73;;;9.45;;
79668;SDS011;69136;52.614;6.976;2023-11-19T00:35:51;18.20;;;9.38;;
79668;SDS011;69136;52.614;6.976;2023-11-19T00:38:35;17.30;;;8.82;;
79668;SDS011;69136;52.614;6.976;2023-11-19T00:41:20;22.98;;;11.05;;
79668;SDS011;69136;52.614;6.976;2023-11-19T00:44:05;19.95;;;9.95;;
79668;SDS011;69136;52.614;6.976;2023-11-19T00:46:49;20.15;;;10.80;;
79668;SDS011;69136;52.614;6.976;2023-11-19T00:52:17;24.30;;;10.57;;
79668;SDS011;69136;52.614;6.976;2023-11-19T00:55:01;18.50;;;10.18;;
79668;SDS011;69136;52.614;6.976;2023-11-19T00:57:46;17.25;;;9.55;;
79668;SDS011;69136;52.614;6.976;2023-11-19T01:03:16;24.15;;;10.70;;
79668;SDS011;69136;52.614;6.976;2023-11-19T01:06:00;25.42;;;11.35;;
79668;SDS011;69136;52.614;6.976;2023-11-19T01:08:46;29.08;;;14.07;;
79668;SDS011;69136;52.614;6.976;2023-11-19T01:11:30;30.33;;;12.98;;
79668;SDS011;69136;52.614;6.976;2023-11-19T01:14:15;26.80;;;12.10;;
79668;SDS011;69136;52.614;6.976;2023-11-19T01:17:00;31.85;;;13.73;;
79668;SDS011;69136;52.614;6.976;2023-11-19T01:19:44;28.17;;;13.65;;
79668;SDS011;69136;52.614;6.976;2023-11-19T01:22:29;26.98;;;12.75;;
79668;SDS011;69136;52.614;6.976;2023-11-19T01:25:13;24.58;;;12.27;;
79668;SDS011;69136;52.614;6.976;2023-11-19T01:27:57;25.08;;;12.70;;
79668;SDS011;69136;52.614;6.976;2023-11-19T01:30:42;24.10;;;13.23;;
79668;SDS011;69136;52.614;6.976;2023-11-19T01:33:27;22.35;;;12.20;;
79668;SDS011;69136;52.614;6.976;2023-11-19T01:36:14;22.08;;;12.00;;
79668;SDS011;69136;52.614;6.976;2023-11-19T01:38:59;26.27;;;13.20;;
79668;SDS011;69136;52.614;6.976;2023-11-19T01:41:43;25.73;;;12.52;;
79668;SDS011;69136;52.614;6.976;2023-11-19T01:44:27;26.83;;;13.63;;
79668;SDS011;69136;52.614;6.976;2023-11-19T01:49:55;22.98;;;11.63;;
79668;SDS011;69136;52.614;6.976;2023-11-19T01:52:40;22.33;;;12.38;;
79668;SDS011;69136;52.614;6.976;2023-11-19T01:55:25;24.80;;;12.18;;
79668;SDS011;69136;52.614;6.976;2023-11-19T01:58:12;28.77;;;13.00;;
79668;SDS011;69136;52.614;6.976;2023-11-19T02:00:57;27.90;;;11.80;;
79668;SDS011;69136;52.614;6.976;2023-11-19T02:03:41;24.45;;;12.30;;
79668;SDS011;69136;52.614;6.976;2023-11-19T02:06:26;22.33;;;11.60;;
79668;SDS011;69136;52.614;6.976;2023-11-19T02:09:11;24.20;;;11.38;;
79668;SDS011;69136;52.614;6.976;2023-11-19T02:11:55;24.17;;;11.93;;
79668;SDS011;69136;52.614;6.976;2023-11-19T02:14:40;22.70;;;11.63;;
79668;SDS011;69136;52.614;6.976;2023-11-19T02:17:29;20.25;;;10.35;;
79668;SDS011;69136;52.614;6.976;2023-11-19T02:20:18;20.98;;;10.63;;
79668;SDS011;69136;52.614;6.976;2023-11-19T02:23:03;24.58;;;13.02;;
79668;SDS011;69136;52.614;6.976;2023-11-19T02:25:49;23.10;;;11.60;;
79668;SDS011;69136;52.614;6.976;2023-11-19T02:28:39;18.17;;;10.48;;
79668;SDS011;69136;52.614;6.976;2023-11-19T02:31:23;24.52;;;12.10;;
79668;SDS011;69136;52.614;6.976;2023-11-19T02:34:07;23.67;;;10.93;;
79668;SDS011;69136;52.614;6.976;2023-11-19T02:36:54;19.40;;;10.32;;
79668;SDS011;69136;52.614;6.976;2023-11-19T02:39:39;26.45;;;10.18;;
79668;SDS011;69136;52.614;6.976;2023-11-19T02:42:23;20.95;;;10.63;;
79668;SDS011;69136;52.614;6.976;2023-11-19T02:45:07;19.55;;;10.23;;
79668;SDS011;69136;52.614;6.976;2023-11-19T02:47:54;21.58;;;9.93;;
79668;SDS011;69136;52.614;6.976;2023-11-19T02:50:39;21.25;;;9.07;;
79668;SDS011;69136;52.614;6.976;2023-11-19T02:53:25;20.33;;;8.88;;
79668;SDS011;69136;52.614;6.976;2023-11-19T02:56:11;17.02;;;8.50;;
79668;SDS011;69136;52.614;6.976;2023-11-19T02:59:09;17.35;;;8.93;;
79668;SDS011;69136;52.614;6.976;2023-11-19T03:02:02;17.90;;;8.63;;
79668;SDS011;69136;52.614;6.976;2023-11-19T03:04:46;27.30;;;9.70;;
79668;SDS011;69136;52.614;6.976;2023-11-19T03:07:31;23.23;;;8.23;;
79668;SDS011;69136;52.614;6.976;2023-11-19T03:10:15;22.85;;;7.88;;
79668;SDS011;69136;52.614;6.976;2023-11-19T03:12:59;14.05;;;6.38;;
79668;SDS011;69136;52.614;6.976;2023-11-19T03:15:46;18.95;;;7.75;;
79668;SDS011;69136;52.614;6.976;2023-11-19T03:18:30;19.48;;;8.18;;
79668;SDS011;69136;52.614;6.976;2023-11-19T03:21:14;21.30;;;6.28;;
79668;SDS011;69136;52.614;6.976;2023-11-19T03:23:58;13.60;;;5.85;;
79668;SDS011;69136;52.614;6.976;2023-11-19T03:26:49;18.95;;;5.03;;
79668;SDS011;69136;52.614;6.976;2023-11-19T03:29:34;14.50;;;4.55;;
79668;SDS011;69136;52.614;6.976;2023-11-19T03:32:18;16.60;;;6.07;;
79668;SDS011;69136;52.614;6.976;2023-11-19T03:35:02;15.70;;;5.82;;
79668;SDS011;69136;52.614;6.976;2023-11-19T03:37:48;21.70;;;5.68;;
79668;SDS011;69136;52.614;6.976;2023-11-19T03:40:32;22.27;;;6.50;;
79668;SDS011;69136;52.614;6.976;2023-11-19T03:43:16;19.63;;;5.97;;
79668;SDS011;69136;52.614;6.976;2023-11-19T03:46:00;20.77;;;5.50;;
79668;SDS011;69136;52.614;6.976;2023-11-19T03:48:44;20.95;;;5.20;;
79668;SDS011;69136;52.614;6.976;2023-11-19T03:51:30;23.70;;;6.72;;
79668;SDS011;69136;52.614;6.976;2023-11-19T03:54:14;17.33;;;4.30;;
79668;SDS011;69136;52.614;6.976;2023-11-19T03:56:58;16.98;;;4.30;;
79668;SDS011;69136;52.614;6.976;2023-11-19T03:59:43;26.10;;;6.22;;
79668;SDS011;69136;52.614;6.976;2023-11-19T04:02:28;15.50;;;4.32;;
79668;SDS011;69136;52.614;6.976;2023-11-19T04:05:13;17.98;;;3.95;;
79668;SDS011;69136;52.614;6.976;2023-11-19T04:07:57;22.23;;;4.55;;
79668;SDS011;69136;52.614;6.976;2023-11-19T04:10:40;23.73;;;4.43;;
79668;SDS011;69136;52.614;6.976;2023-11-19T04:13:25;21.42;;;4.20;;
79668;SDS011;69136;52.614;6.976;2023-11-19T04:16:09;18.20;;;3.70;;
79668;SDS011;69136;52.614;6.976;2023-11-19T04:18:53;22.15;;;5.57;;
79668;SDS011;69136;52.614;6.976;2023-11-19T04:24:21;28.02;;;4.93;;
79668;SDS011;69136;52.614;6.976;2023-11-19T04:27:05;16.20;;;4.10;;
79668;SDS011;69136;52.614;6.976;2023-11-19T04:29:50;21.10;;;4.10;;
79668;SDS011;69136;52.614;6.976;2023-11-19T04:32:34;26.52;;;4.72;;
79668;SDS011;69136;52.614;6.976;2023-11-19T04:35:18;20.08;;;4.28;;
79668;SDS011;69136;52.614;6.976;2023-11-19T04:38:03;24.95;;;4.68;;
79668;SDS011;69136;52.614;6.976;2023-11-19T04:40:47;20.05;;;3.67;;
79668;SDS011;69136;52.614;6.976;2023-11-19T04:43:31;20.05;;;3.65;;
79668;SDS011;69136;52.614;6.976;2023-11-19T04:46:15;22.83;;;5.07;;
79668;SDS011;69136;52.614;6.976;2023-11-19T04:48:59;28.17;;;4.68;;
79668;SDS011;69136;52.614;6.976;2023-11-19T04:51:44;21.83;;;4.22;;
79668;SDS011;69136;52.614;6.976;2023-11-19T04:54:30;22.85;;;4.18;;
79668;SDS011;69136;52.614;6.976;2023-11-19T04:57:14;25.85;;;5.43;;
79668;SDS011;69136;52.614;6.976;2023-11-19T04:59:59;29.95;;;4.57;;
79668;SDS011;69136;52.614;6.976;2023-11-19T05:05:26;25.65;;;3.92;;
79668;SDS011;69136;52.614;6.976;2023-11-19T05:08:11;26.50;;;4.28;;
79668;SDS011;69136;52.614;6.976;2023-11-19T05:10:55;19.85;;;4.38;;
79668;SDS011;69136;52.614;6.976;2023-11-19T05:13:39;20.52;;;3.90;;
79668;SDS011;69136;52.614;6.976;2023-11-19T05:16:23;22.95;;;5.32;;
79668;SDS011;69136;52.614;6.976;2023-11-19T05:19:07;22.30;;;3.95;;
79668;SDS011;69136;52.614;6.976;2023-11-19T05:21:52;17.75;;;3.50;;
79668;SDS011;69136;52.614;6.976;2023-11-19T05:24:37;19.25;;;4.40;;
79668;SDS011;69136;52.614;6.976;2023-11-19T05:27:21;25.58;;;4.60;;
79668;SDS011;69136;52.614;6.976;2023-11-19T05:30:06;25.13;;;4.93;;
79668;SDS011;69136;52.614;6.976;2023-11-19T05:32:56;26.60;;;4.40;;
79668;SDS011;69136;52.614;6.976;2023-11-19T05:35:40;29.38;;;5.60;;
79668;SDS011;69136;52.614;6.976;2023-11-19T05:41:08;25.27;;;3.92;;
79668;SDS011;69136;52.614;6.976;2023-11-19T05:43:52;22.63;;;4.28;;
79668;SDS011;69136;52.614;6.976;2023-11-19T05:46:36;30.17;;;5.07;;
79668;SDS011;69136;52.614;6.976;2023-11-19T05:49:24;26.23;;;4.90;;
79668;SDS011;69136;52.614;6.976;2023-11-19T05:52:08;17.65;;;4.28;;
79668;SDS011;69136;52.614;6.976;2023-11-19T05:54:53;25.98;;;5.15;;
79668;SDS011;69136;52.614;6.976;2023-11-19T05:57:37;32.30;;;5.38;;
79668;SDS011;69136;52.614;6.976;2023-11-19T06:00:21;29.20;;;4.65;;
79668;SDS011;69136;52.614;6.976;2023-11-19T06:03:05;23.40;;;4.22;;
79668;SDS011;69136;52.614;6.976;2023-11-19T06:05:51;26.30;;;5.10;;
79668;SDS011;69136;52.614;6.976;2023-11-19T06:08:36;25.58;;;5.63;;
79668;SDS011;69136;52.614;6.976;2023-11-19T06:11:21;24.75;;;4.47;;
79668;SDS011;69136;52.614;6.976;2023-11-19T06:14:05;30.50;;;4.50;;
79668;SDS011;69136;52.614;6.976;2023-11-19T06:16:50;23.55;;;4.30;;
79668;SDS011;69136;52.614;6.976;2023-11-19T06:19:35;32.20;;;4.30;;
79668;SDS011;69136;52.614;6.976;2023-11-19T06:22:19;25.70;;;3.97;;
79668;SDS011;69136;52.614;6.976;2023-11-19T06:27:51;29.15;;;4.65;;
79668;SDS011;69136;52.614;6.976;2023-11-19T06:30:36;31.35;;;4.93;;
79668;SDS011;69136;52.614;6.976;2023-11-19T06:33:20;28.35;;;5.60;;
79668;SDS011;69136;52.614;6.976;2023-11-19T06:36:05;28.67;;;4.10;;
79668;SDS011;69136;52.614;6.976;2023-11-19T06:38:49;37.28;;;5.97;;
79668;SDS011;69136;52.614;6.976;2023-11-19T06:41:33;27.73;;;5.95;;
79668;SDS011;69136;52.614;6.976;2023-11-19T06:47:01;30.15;;;5.28;;
79668;SDS011;69136;52.614;6.976;2023-11-19T06:49:45;29.70;;;5.28;;
79668;SDS011;69136;52.614;6.976;2023-11-19T06:52:29;24.10;;;4.70;;
79668;SDS011;69136;52.614;6.976;2023-11-19T06:55:14;29.33;;;4.50;;
79668;SDS011;69136;52.614;6.976;2023-11-19T06:57:59;28.02;;;4.50;;
79668;SDS011;69136;52.614;6.976;2023-11-19T07:00:46;34.40;;;6.88;;
79668;SDS011;69136;52.614;6.976;2023-11-19T07:03:32;28.30;;;3.95;;
79668;SDS011;69136;52.614;6.976;2023-11-19T07:06:15;28.75;;;4.10;;
79668;SDS011;69136;52.614;6.976;2023-11-19T07:09:00;23.48;;;5.28;;
79668;SDS011;69136;52.614;6.976;2023-11-19T07:11:52;22.20;;;3.90;;
79668;SDS011;69136;52.614;6.976;2023-11-19T07:14:37;21.02;;;3.70;;
79668;SDS011;69136;52.614;6.976;2023-11-19T07:17:22;35.03;;;5.20;;
79668;SDS011;69136;52.614;6.976;2023-11-19T07:20:08;33.70;;;4.80;;
79668;SDS011;69136;52.614;6.976;2023-11-19T07:22:53;29.85;;;3.95;;
79668;SDS011;69136;52.614;6.976;2023-11-19T07:25:38;30.05;;;4.50;;
79668;SDS011;69136;52.614;6.976;2023-11-19T07:28:22;32.10;;;5.45;;
79668;SDS011;69136;52.614;6.976;2023-11-19T07:31:06;26.27;;;4.93;;
79668;SDS011;69136;52.614;6.976;2023-11-19T07:33:51;22.17;;;3.88;;
79668;SDS011;69136;52.614;6.976;2023-11-19T07:36:35;35.63;;;5.38;;
79668;SDS011;69136;52.614;6.976;2023-11-19T07:39:19;28.20;;;4.80;;
79668;SDS011;69136;52.614;6.976;2023-11-19T07:42:07;25.08;;;5.40;;
79668;SDS011;69136;52.614;6.976;2023-11-19T07:44:51;28.67;;;4.65;;
79668;SDS011;69136;52.614;6.976;2023-11-19T07:47:35;23.08;;;3.70;;
79668;SDS011;69136;52.614;6.976;2023-11-19T07:50:19;28.52;;;5.55;;
79668;SDS011;69136;52.614;6.976;2023-11-19T07:53:04;26.98;;;4.20;;
79668;SDS011;69136;52.614;6.976;2023-11-19T07:55:48;29.15;;;4.50;;
79668;SDS011;69136;52.614;6.976;2023-11-19T07:58:32;29.10;;;5.55;;
79668;SDS011;69136;52.614;6.976;2023-11-19T08:01:16;26.83;;;6.22;;
79668;SDS011;69136;52.614;6.976;2023-11-19T08:04:01;24.75;;;3.95;;
79668;SDS011;69136;52.614;6.976;2023-11-19T08:06:45;27.77;;;5.32;;
79668;SDS011;69136;52.614;6.976;2023-11-19T08:09:29;34.35;;;4.65;;
79668;SDS011;69136;52.614;6.976;2023-11-19T08:12:13;21.95;;;4.03;;
79668;SDS011;69136;52.614;6.976;2023-11-19T08:15:02;31.05;;;5.28;;
79668;SDS011;69136;52.614;6.976;2023-11-19T08:17:46;31.52;;;4.90;;
79668;SDS011;69136;52.614;6.976;2023-11-19T08:20:30;29.83;;;4.55;;
79668;SDS011;69136;52.614;6.976;2023-11-19T08:25:58;20.65;;;3.70;;
79668;SDS011;69136;52.614;6.976;2023-11-19T08:28:43;23.98;;;4.70;;
79668;SDS011;69136;52.614;6.976;2023-11-19T08:31:27;27.80;;;4.18;;
79668;SDS011;69136;52.614;6.976;2023-11-19T08:34:11;30.13;;;4.55;;
79668;SDS011;69136;52.614;6.976;2023-11-19T08:36:55;23.50;;;4.40;;
79668;SDS011;69136;52.614;6.976;2023-11-19T08:39:39;27.50;;;4.78;;
79668;SDS011;69136;52.614;6.976;2023-11-19T08:42:24;31.58;;;5.30;;
79668;SDS011;69136;52.614;6.976;2023-11-19T08:45:08;26.27;;;4.00;;
79668;SDS011;69136;52.614;6.976;2023-11-19T08:47:55;34.50;;;4.78;;
79668;SDS011;69136;52.614;6.976;2023-11-19T08:50:39;22.55;;;4.75;;
79668;SDS011;69136;52.614;6.976;2023-11-19T08:53:23;30.27;;;4.70;;
79668;SDS011;69136;52.614;6.976;2023-11-19T08:58:51;31.02;;;5.97;;
79668;SDS011;69136;52.614;6.976;2023-11-19T09:01:35;36.95;;;5.82;;
79668;SDS011;69136;52.614;6.976;2023-11-19T09:04:19;27.85;;;5.03;;
79668;SDS011;69136;52.614;6.976;2023-11-19T09:07:06;27.55;;;4.97;;
79668;SDS011;69136;52.614;6.976;2023-11-19T09:09:50;38.47;;;5.38;;
79668;SDS011;69136;52.614;6.976;2023-11-19T09:12:34;31.77;;;6.07;;
79668;SDS011;69136;52.614;6.976;2023-11-19T09:15:18;30.42;;;4.88;;
79668;SDS011;69136;52.614;6.976;2023-11-19T09:18:02;26.73;;;4.40;;
79668;SDS011;69136;52.614;6.976;2023-11-19T09:20:48;22.90;;;3.88;;
79668;SDS011;69136;52.614;6.976;2023-11-19T09:23:32;30.27;;;4.93;;
79668;SDS011;69136;52.614;6.976;2023-11-19T09:26:20;30.77;;;4.13;;
79668;SDS011;69136;52.614;6.976;2023-11-19T09:29:04;31.08;;;4.68;;
79668;SDS011;69136;52.614;6.976;2023-11-19T09:31:47;24.00;;;4.78;;
79668;SDS011;69136;52.614;6.976;2023-11-19T09:34:31;21.25;;;4.32;;
79668;SDS011;69136;52.614;6.976;2023-11-19T09:37:15;30.25;;;4.57;;
79668;SDS011;69136;52.614;6.976;2023-11-19T09:40:00;32.88;;;4.50;;
79668;SDS011;69136;52.614;6.976;2023-11-19T09:42:44;27.35;;;4.50;;
79668;SDS011;69136;52.614;6.976;2023-11-19T09:45:32;30.40;;;5.20;;
79668;SDS011;69136;52.614;6.976;2023-11-19T09:48:34;24.05;;;4.28;;
79668;SDS011;69136;52.614;6.976;2023-11-19T09:51:19;30.95;;;4.63;;
79668;SDS011;69136;52.614;6.976;2023-11-19T09:54:03;27.60;;;4.10;;
79668;SDS011;69136;52.614;6.976;2023-11-19T09:56:46;30.42;;;4.68;;
79668;SDS011;69136;52.614;6.976;2023-11-19T09:59:31;33.80;;;5.18;;
79668;SDS011;69136;52.614;6.976;2023-11-19T10:02:17;28.35;;;3.83;;
79668;SDS011;69136;52.614;6.976;2023-11-19T10:05:04;33.70;;;4.50;;
79668;SDS011;69136;52.614;6.976;2023-11-19T10:07:50;29.67;;;4.60;;
79668;SDS011;69136;52.614;6.976;2023-11-19T10:10:34;33.42;;;5.07;;
79668;SDS011;69136;52.614;6.976;2023-11-19T10:13:18;28.48;;;4.75;;
79668;SDS011;69136;52.614;6.976;2023-11-19T10:16:03;30.20;;;6.05;;
79668;SDS011;69136;52.614;6.976;2023-11-19T10:18:52;26.05;;;5.25;;
79668;SDS011;69136;52.614;6.976;2023-11-19T10:21:36;38.55;;;5.47;;
79668;SDS011;69136;52.614;6.976;2023-11-19T10:24:31;22.00;;;4.07;;
79668;SDS011;69136;52.614;6.976;2023-11-19T10:27:16;28.63;;;4.65;;
79668;SDS011;69136;52.614;6.976;2023-11-19T10:30:00;24.17;;;4.90;;
79668;SDS011;69136;52.614;6.976;2023-11-19T10:32:45;32.55;;;4.80;;
79668;SDS011;69136;52.614;6.976;2023-11-19T10:35:29;36.45;;;5.68;;
79668;SDS011;69136;52.614;6.976;2023-11-19T10:38:13;30.65;;;4.82;;
79668;SDS011;69136;52.614;6.976;2023-11-19T10:40:59;33.22;;;5.45;;
79668;SDS011;69136;52.614;6.976;2023-11-19T10:43:44;22.55;;;4.30;;
79668;SDS011;69136;52.614;6.976;2023-11-19T10:46:41;30.08;;;5.55;;
79668;SDS011;69136;52.614;6.976;2023-11-19T10:49:25;29.25;;;4.35;;
79668;SDS011;69136;52.614;6.976;2023-11-19T10:52:09;31.60;;;5.35;;
79668;SDS011;69136;52.614;6.976;2023-11-19T10:54:53;33.70;;;5.53;;
79668;SDS011;69136;52.614;6.976;2023-11-19T10:57:39;22.83;;;4.55;;
79668;SDS011;69136;52.614;6.976;2023-11-19T11:00:37;23.00;;;4.93;;
79668;SDS011;69136;52.614;6.976;2023-11-19T11:03:29;28.65;;;5.18;;
79668;SDS011;69136;52.614;6.976;2023-11-19T11:09:02;24.35;;;4.50;;
79668;SDS011;69136;52.614;6.976;2023-11-19T11:11:48;31.17;;;5.80;;
79668;SDS011;69136;52.614;6.976;2023-11-19T11:14:34;25.73;;;4.00;;
79668;SDS011;69136;52.614;6.976;2023-11-19T11:17:19;25.80;;;5.90;;
79668;SDS011;69136;52.614;6.976;2023-11-19T11:20:03;35.97;;;5.50;;
79668;SDS011;69136;52.614;6.976;2023-11-19T11:22:51;18.58;;;4.53;;
79668;SDS011;69136;52.614;6.976;2023-11-19T11:26:05;22.58;;;4.10;;
79668;SDS011;69136;52.614;6.976;2023-11-19T11:29:08;25.10;;;4.40;;
79668;SDS011;69136;52.614;6.976;2023-11-19T11:38:41;31.08;;;4.25;;
79668;SDS011;69136;52.614;6.976;2023-11-19T11:41:26;24.92;;;4.95;;
79668;SDS011;69136;52.614;6.976;2023-11-19T11:44:10;21.73;;;4.35;;
79668;SDS011;69136;52.614;6.976;2023-11-19T11:46:55;18.52;;;3.80;;
79668;SDS011;69136;52.614;6.976;2023-11-19T11:49:39;27.63;;;4.32;;
79668;SDS011;69136;52.614;6.976;2023-11-19T11:52:23;23.50;;;4.68;;
79668;SDS011;69136;52.614;6.976;2023-11-19T11:55:08;24.80;;;4.75;;
79668;SDS011;69136;52.614;6.976;2023-11-19T11:57:53;24.98;;;4.82;;
79668;SDS011;69136;52.614;6.976;2023-11-19T12:00:38;25.20;;;4.13;;
79668;SDS011;69136;52.614;6.976;2023-11-19T12:03:23;21.52;;;4.35;;
79668;SDS011;69136;52.614;6.976;2023-11-19T12:06:07;28.27;;;4.55;;
79668;SDS011;69136;52.614;6.976;2023-11-19T12:08:52;23.85;;;5.22;;
79668;SDS011;69136;52.614;6.976;2023-11-19T12:11:36;23.40;;;4.07;;
79668;SDS011;69136;52.614;6.976;2023-11-19T12:14:39;30.38;;;4.65;;
79668;SDS011;69136;52.614;6.976;2023-11-19T12:17:51;25.27;;;5.05;;
79668;SDS011;69136;52.614;6.976;2023-11-19T12:20:35;25.63;;;5.50;;
79668;SDS011;69136;52.614;6.976;2023-11-19T12:23:24;26.58;;;5.70;;
79668;SDS011;69136;52.614;6.976;2023-11-19T12:26:08;20.83;;;3.75;;
79668;SDS011;69136;52.614;6.976;2023-11-19T12:29:05;31.40;;;5.57;;
79668;SDS011;69136;52.614;6.976;2023-11-19T12:31:53;21.50;;;4.88;;
79668;SDS011;69136;52.614;6.976;2023-11-19T12:34:38;20.65;;;4.43;;
79668;SDS011;69136;52.614;6.976;2023-11-19T12:37:23;19.95;;;4.28;;
79668;SDS011;69136;52.614;6.976;2023-11-19T12:40:11;16.63;;;4.28;;
79668;SDS011;69136;52.614;6.976;2023-11-19T12:42:56;20.48;;;4.15;;
79668;SDS011;69136;52.614;6.976;2023-11-19T12:45:41;12.38;;;2.10;;
79668;SDS011;69136;52.614;6.976;2023-11-19T12:48:24;10.73;;;1.83;;
79668;SDS011;69136;52.614;6.976;2023-11-19T12:51:08;10.88;;;2.33;;
79668;SDS011;69136;52.614;6.976;2023-11-19T12:53:53;9.95;;;1.88;;
79668;SDS011;69136;52.614;6.976;2023-11-19T12:56:51;12.93;;;1.80;;
79668;SDS011;69136;52.614;6.976;2023-11-19T12:59:36;9.63;;;2.25;;
79668;SDS011;69136;52.614;6.976;2023-11-19T13:02:20;16.63;;;2.40;;
79668;SDS011;69136;52.614;6.976;2023-11-19T13:08:08;16.00;;;3.55;;
79668;SDS011;69136;52.614;6.976;2023-11-19T13:10:53;12.20;;;2.45;;
79668;SDS011;69136;52.614;6.976;2023-11-19T13:16:44;18.30;;;4.50;;
79668;SDS011;69136;52.614;6.976;2023-11-19T13:19:31;16.17;;;2.88;;
79668;SDS011;69136;52.614;6.976;2023-11-19T13:22:15;12.02;;;3.05;;
79668;SDS011;69136;52.614;6.976;2023-11-19T13:24:59;18.20;;;3.30;;
79668;SDS011;69136;52.614;6.976;2023-11-19T13:27:45;14.93;;;2.35;;
79668;SDS011;69136;52.614;6.976;2023-11-19T13:30:29;15.90;;;2.40;;
79668;SDS011;69136;52.614;6.976;2023-11-19T13:33:13;20.00;;;3.58;;
79668;SDS011;69136;52.614;6.976;2023-11-19T13:35:58;16.48;;;2.85;;
79668;SDS011;69136;52.614;6.976;2023-11-19T13:38:45;18.25;;;3.03;;
79668;SDS011;69136;52.614;6.976;2023-11-19T13:41:30;16.42;;;2.70;;
79668;SDS011;69136;52.614;6.976;2023-11-19T13:44:14;18.67;;;3.05;;
79668;SDS011;69136;52.614;6.976;2023-11-19T13:46:59;20.92;;;3.10;;
79668;SDS011;69136;52.614;6.976;2023-11-19T13:49:44;20.40;;;4.07;;
79668;SDS011;69136;52.614;6.976;2023-11-19T13:52:28;19.40;;;2.85;;
79668;SDS011;69136;52.614;6.976;2023-11-19T13:55:13;20.45;;;2.80;;
79668;SDS011;69136;52.614;6.976;2023-11-19T13:57:57;12.30;;;2.38;;
79668;SDS011;69136;52.614;6.976;2023-11-19T14:00:41;18.85;;;2.75;;
79668;SDS011;69136;52.614;6.976;2023-11-19T14:03:27;11.93;;;2.50;;
79668;SDS011;69136;52.614;6.976;2023-11-19T14:06:10;21.00;;;3.33;;
79668;SDS011;69136;52.614;6.976;2023-11-19T14:08:56;11.35;;;2.30;;
79668;SDS011;69136;52.614;6.976;2023-11-19T14:11:40;14.02;;;3.45;;
79668;SDS011;69136;52.614;6.976;2023-11-19T14:14:25;17.02;;;2.65;;
79668;SDS011;69136;52.614;6.976;2023-11-19T14:17:09;23.30;;;3.58;;
79668;SDS011;69136;52.614;6.976;2023-11-19T14:19:54;16.42;;;3.20;;
79668;SDS011;69136;52.614;6.976;2023-11-19T14:22:39;17.52;;;2.70;;
79668;SDS011;69136;52.614;6.976;2023-11-19T14:25:26;18.30;;;3.55;;
79668;SDS011;69136;52.614;6.976;2023-11-19T14:28:10;16.70;;;4.50;;
79668;SDS011;69136;52.614;6.976;2023-11-19T14:30:54;17.95;;;2.60;;
79668;SDS011;69136;52.614;6.976;2023-11-19T14:33:41;22.77;;;3.65;;
79668;SDS011;69136;52.614;6.976;2023-11-19T14:36:25;14.07;;;2.95;;
79668;SDS011;69136;52.614;6.976;2023-11-19T14:39:10;15.00;;;2.88;;
79668;SDS011;69136;52.614;6.976;2023-11-19T14:41:54;10.68;;;2.55;;
79668;SDS011;69136;52.614;6.976;2023-11-19T14:44:41;14.20;;;2.88;;
79668;SDS011;69136;52.614;6.976;2023-11-19T14:47:25;20.55;;;3.90;;
79668;SDS011;69136;52.614;6.976;2023-11-19T14:50:10;17.65;;;2.95;;
79668;SDS011;69136;52.614;6.976;2023-11-19T14:55:37;18.85;;;3.80;;
79668;SDS011;69136;52.614;6.976;2023-11-19T14:58:22;23.40;;;4.53;;
79668;SDS011;69136;52.614;6.976;2023-11-19T15:01:06;20.02;;;3.35;;
79668;SDS011;69136;52.614;6.976;2023-11-19T15:03:51;13.70;;;3.30;;
79668;SDS011;69136;52.614;6.976;2023-11-19T15:06:35;18.58;;;4.07;;
79668;SDS011;69136;52.614;6.976;2023-11-19T15:09:19;14.50;;;3.13;;
79668;SDS011;69136;52.614;6.976;2023-11-19T15:12:05;19.02;;;3.40;;
79668;SDS011;69136;52.614;6.976;2023-11-19T15:14:49;14.07;;;3.00;;
79668;SDS011;69136;52.614;6.976;2023-11-19T15:17:33;16.95;;;3.22;;
79668;SDS011;69136;52.614;6.976;2023-11-19T15:20:17;17.15;;;2.63;;
79668;SDS011;69136;52.614;6.976;2023-11-19T15:23:02;21.35;;;4.60;;
79668;SDS011;69136;52.614;6.976;2023-11-19T15:25:46;14.35;;;3.08;;
79668;SDS011;69136;52.614;6.976;2023-11-19T15:28:30;16.80;;;4.20;;
79668;SDS011;69136;52.614;6.976;2023-11-19T15:31:14;17.38;;;2.83;;
79668;SDS011;69136;52.614;6.976;2023-11-19T15:33:59;17.95;;;3.70;;
79668;SDS011;69136;52.614;6.976;2023-11-19T15:36:43;17.65;;;4.22;;
79668;SDS011;69136;52.614;6.976;2023-11-19T15:39:28;12.73;;;3.85;;
79668;SDS011;69136;52.614;6.976;2023-11-19T15:42:13;15.20;;;3.63;;
79668;SDS011;69136;52.614;6.976;2023-11-19T15:44:57;14.70;;;3.05;;
79668;SDS011;69136;52.614;6.976;2023-11-19T15:47:41;15.65;;;2.72;;
79668;SDS011;69136;52.614;6.976;2023-11-19T15:50:25;18.95;;;4.50;;
79668;SDS011;69136;52.614;6.976;2023-11-19T15:53:08;17.95;;;3.85;;
79668;SDS011;69136;52.614;6.976;2023-11-19T15:55:52;20.77;;;4.00;;
79668;SDS011;69136;52.614;6.976;2023-11-19T15:58:36;15.73;;;3.35;;
79668;SDS011;69136;52.614;6.976;2023-11-19T16:01:23;24.05;;;3.85;;
79668;SDS011;69136;52.614;6.976;2023-11-19T16:04:07;14.75;;;3.28;;
79668;SDS011;69136;52.614;6.976;2023-11-19T16:06:53;11.10;;;3.00;;
79668;SDS011;69136;52.614;6.976;2023-11-19T16:09:36;18.65;;;3.40;;
79668;SDS011;69136;52.614;6.976;2023-11-19T16:12:21;14.98;;;2.67;;
79668;SDS011;69136;52.614;6.976;2023-11-19T16:15:06;11.07;;;3.38;;
79668;SDS011;69136;52.614;6.976;2023-11-19T16:17:52;12.70;;;2.65;;
79668;SDS011;69136;52.614;6.976;2023-11-19T16:23:19;16.60;;;3.80;;
79668;SDS011;69136;52.614;6.976;2023-11-19T16:26:03;21.55;;;3.90;;
79668;SDS011;69136;52.614;6.976;2023-11-19T16:28:49;15.85;;;3.45;;
79668;SDS011;69136;52.614;6.976;2023-11-19T16:31:32;12.88;;;2.97;;
79668;SDS011;69136;52.614;6.976;2023-11-19T16:34:17;12.57;;;3.03;;
79668;SDS011;69136;52.614;6.976;2023-11-19T16:37:01;23.73;;;3.65;;
79668;SDS011;69136;52.614;6.976;2023-11-19T16:39:45;19.95;;;4.32;;
79668;SDS011;69136;52.614;6.976;2023-11-19T16:42:29;16.38;;;3.65;;
79668;SDS011;69136;52.614;6.976;2023-11-19T16:45:13;17.45;;;3.65;;
79668;SDS011;69136;52.614;6.976;2023-11-19T16:47:58;17.20;;;3.67;;
79668;SDS011;69136;52.614;6.976;2023-11-19T16:50:41;13.15;;;2.63;;
79668;SDS011;69136;52.614;6.976;2023-11-19T16:53:26;18.10;;;3.90;;
79668;SDS011;69136;52.614;6.976;2023-11-19T16:56:10;26.13;;;4.45;;
79668;SDS011;69136;52.614;6.976;2023-11-19T16:58:55;15.57;;;2.97;;
79668;SDS011;69136;52.614;6.976;2023-11-19T17:01:39;18.67;;;3.08;;
79668;SDS011;69136;52.614;6.976;2023-11-19T17:04:23;22.77;;;3.35;;
79668;SDS011;69136;52.614;6.976;2023-11-19T17:07:11;25.95;;;4.75;;
79668;SDS011;69136;52.614;6.976;2023-11-19T17:09:55;17.40;;;4.53;;
79668;SDS011;69136;52.614;6.976;2023-11-19T17:12:38;14.50;;;3.28;;